Wetterdaten: Woche 15.12.14 - 21.12.14 (KW51)
Datum Zeit Temp. A. Feuchte A. Luftdruck Regen Wind Richtung Taupunkt Windchill Windben
15.12.2014 00:00 1,4 C 82 % 1020,7 hPa 0,0 l/m 0,2 km/h N -1,4 C 1,4 C 2,0 km/h
15.12.2014 01:00 1,8 C 82 % 1020,6 hPa 0,0 l/m 0,1 km/h N -1,0 C 1,8 C 0,8 km/h
15.12.2014 02:00 2,3 C 81 % 1020,5 hPa 0,0 l/m 0,1 km/h N -0,6 C 2,3 C 0,8 km/h
15.12.2014 03:00 2,1 C 82 % 1020,3 hPa 0,0 l/m 0,2 km/h N -0,7 C 2,1 C 1,2 km/h
15.12.2014 04:00 2,3 C 81 % 1020,3 hPa 0,0 l/m 0,4 km/h N -0,6 C 2,3 C 3,6 km/h
15.12.2014 05:00 2,3 C 81 % 1020,0 hPa 0,0 l/m 0,3 km/h N -0,6 C 2,3 C 3,2 km/h
15.12.2014 06:00 2,0 C 81 % 1019,9 hPa 0,0 l/m 0,4 km/h N -0,9 C 2,0 C 4,0 km/h
15.12.2014 07:00 1,7 C 82 % 1020,2 hPa 0,0 l/m 0,9 km/h N -1,1 C 1,7 C 6,4 km/h
15.12.2014 08:00 1,6 C 81 % 1020,3 hPa 0,0 l/m 0,6 km/h N -1,3 C 1,6 C 5,2 km/h
15.12.2014 09:00 1,5 C 81 % 1020,8 hPa 0,0 l/m 0,1 km/h N -1,3 C 1,5 C 2,0 km/h
15.12.2014 10:00 1,8 C 81 % 1020,9 hPa 0,0 l/m 0,3 km/h N -1,2 C 1,8 C 3,2 km/h
15.12.2014 11:00 2,2 C 81 % 1020,4 hPa 0,0 l/m 0,0 km/h N -0,7 C 2,2 C 1,2 km/h
15.12.2014 12:00 2,7 C 81 % 1019,7 hPa 0,0 l/m 0,1 km/h N -0,2 C 2,7 C 1,2 km/h
15.12.2014 13:00 3,2 C 81 % 1019,4 hPa 0,0 l/m 0,0 km/h N 0,3 C 3,2 C 0,8 km/h
15.12.2014 14:00 3,4 C 81 % 1019,1 hPa 0,0 l/m 0,0 km/h N 0,5 C 3,4 C 0,4 km/h
15.12.2014 15:00 3,2 C 82 % 1019,7 hPa 0,0 l/m 0,3 km/h N 0,4 C 3,2 C 3,6 km/h
15.12.2014 16:00 2,8 C 82 % 1019,5 hPa 0,0 l/m 0,0 km/h N 0,0 C 2,8 C 0,4 km/h
15.12.2014 17:00 2,6 C 82 % 1019,6 hPa 0,0 l/m 0,3 km/h N -0,1 C 2,6 C 2,4 km/h
15.12.2014 18:00 2,5 C 83 % 1019,6 hPa 0,0 l/m 0,2 km/h N -0,1 C 2,5 C 1,6 km/h
15.12.2014 19:00 2,5 C 83 % 1019,6 hPa 0,0 l/m 0,0 km/h N -0,1 C 2,5 C 0,0 km/h
15.12.2014 20:00 2,7 C 83 % 1019,3 hPa 0,0 l/m 0,0 km/h N 0,0 C 2,7 C 0,8 km/h
15.12.2014 21:00 2,7 C 83 % 1019,0 hPa 0,0 l/m 0,1 km/h N 0,1 C 2,7 C 0,8 km/h
15.12.2014 22:00 2,3 C 83 % 1018,8 hPa 0,0 l/m 0,0 km/h N -0,3 C 2,3 C 0,0 km/h
15.12.2014 23:00 1,3 C 84 % 1018,7 hPa 0,0 l/m 0,0 km/h N -1,2 C 1,3 C 0,0 km/h
16.12.2014 00:00 0,9 C 84 % 1018,4 hPa 0,0 l/m 0,0 km/h N -1,6 C 0,9 C 0,4 km/h
16.12.2014 01:00 1,0 C 83 % 1017,7 hPa 0,0 l/m 0,2 km/h N -1,5 C 1,0 C 1,6 km/h
16.12.2014 02:00 0,4 C 84 % 1017,5 hPa 0,0 l/m 0,0 km/h N -2,0 C 0,4 C 0,0 km/h
16.12.2014 03:00 0,3 C 83 % 1017,0 hPa 0,0 l/m 0,1 km/h N -2,2 C 0,3 C 1,2 km/h
16.12.2014 04:00 0,2 C 83 % 1016,5 hPa 0,0 l/m 0,1 km/h N -2,3 C 0,2 C 0,8 km/h
16.12.2014 05:00 0,2 C 83 % 1016,1 hPa 0,0 l/m 0,0 km/h N -2,3 C 0,2 C 0,0 km/h
16.12.2014 06:00 0,6 C 82 % 1015,6 hPa 0,0 l/m 0,2 km/h N -2,0 C 0,6 C 2,4 km/h
16.12.2014 07:00 1,0 C 82 % 1015,3 hPa 0,0 l/m 0,1 km/h N -1,7 C 1,0 C 0,8 km/h
16.12.2014 08:00 0,8 C 82 % 1015,2 hPa 0,0 l/m 0,2 km/h N -1,9 C 0,8 C 1,6 km/h
16.12.2014 09:00 0,8 C 82 % 1014,9 hPa 0,0 l/m 0,5 km/h N -2,0 C 0,8 C 4,4 km/h
16.12.2014 10:00 0,7 C 82 % 1014,8 hPa 0,0 l/m 1,1 km/h N -2,0 C 0,7 C 6,0 km/h
16.12.2014 11:00 1,0 C 82 % 1014,2 hPa 0,0 l/m 0,2 km/h N -1,7 C 1,0 C 3,6 km/h
16.12.2014 12:00 1,5 C 81 % 1013,8 hPa 0,0 l/m 0,0 km/h N -1,3 C 1,5 C 1,2 km/h
16.12.2014 13:00 1,8 C 82 % 1013,5 hPa 0,0 l/m 0,1 km/h N -1,0 C 1,8 C 2,0 km/h
16.12.2014 14:00 2,0 C 81 % 1013,1 hPa 0,0 l/m 0,5 km/h N -0,9 C 2,0 C 3,6 km/h
16.12.2014 15:00 2,2 C 81 % 1012,8 hPa 0,0 l/m 0,0 km/h N -0,7 C 2,2 C 0,0 km/h
16.12.2014 16:00 2,3 C 82 % 1012,4 hPa 0,0 l/m 0,1 km/h N -0,6 C 2,3 C 2,0 km/h
16.12.2014 17:00 2,1 C 81 % 1012,3 hPa 0,0 l/m 0,1 km/h N -0,7 C 2,1 C 1,6 km/h
16.12.2014 18:00 2,3 C 82 % 1012,5 hPa 0,5 l/m 0,0 km/h N -0,6 C 2,3 C 0,8 km/h
16.12.2014 19:00 2,3 C 81 % 1012,4 hPa 0,5 l/m 0,0 km/h N -0,6 C 2,3 C 0,0 km/h
16.12.2014 20:00 2,6 C 81 % 1012,4 hPa 0,5 l/m 0,0 km/h N -0,3 C 2,6 C 0,0 km/h
16.12.2014 21:00 2,6 C 81 % 1012,4 hPa 0,3 l/m 0,0 km/h N -0,3 C 2,6 C 0,0 km/h
16.12.2014 22:00 2,7 C 81 % 1012,6 hPa 0,0 l/m 0,0 km/h N -0,3 C 2,7 C 0,0 km/h
16.12.2014 23:00 4,8 C 80 % 1012,5 hPa 0,5 l/m 3,5 km/h N 1,6 C 4,8 C 11,3 km/h
17.12.2014 00:00 5,9 C 80 % 1012,6 hPa 0,3 l/m 4,1 km/h N 2,7 C 5,9 C 10,1 km/h
17.12.2014 01:00 5,9 C 81 % 1012,5 hPa 0,0 l/m 3,9 km/h N 2,9 C 5,9 C 10,5 km/h
17.12.2014 02:00 5,9 C 83 % 1012,7 hPa 0,0 l/m 3,3 km/h N 3,2 C 5,9 C 11,7 km/h
17.12.2014 03:00 5,9 C 84 % 1012,8 hPa 0,0 l/m 4,9 km/h N 3,4 C 5,9 C 13,3 km/h
17.12.2014 04:00 6,2 C 86 % 1012,9 hPa 0,0 l/m 7,8 km/h N 4,0 C 5,0 C 21,3 km/h
17.12.2014 05:00 6,2 C 84 % 1013,0 hPa 0,0 l/m 5,8 km/h N 3,8 C 6,2 C 17,7 km/h
17.12.2014 06:00 6,4 C 82 % 1013,3 hPa 0,0 l/m 5,8 km/h N 3,6 C 6,0 C 18,9 km/h
17.12.2014 07:00 6,2 C 81 % 1013,8 hPa 0,0 l/m 5,7 km/h N 3,1 C 6,0 C 19,7 km/h
17.12.2014 08:00 5,8 C 81 % 1014,4 hPa 0,0 l/m 3,2 km/h N 2,8 C 5,8 C 10,1 km/h
17.12.2014 09:00 5,9 C 81 % 1014,7 hPa 0,0 l/m 2,0 km/h N 3,0 C 5,9 C 7,2 km/h
17.12.2014 10:00 6,4 C 81 % 1014,9 hPa 0,0 l/m 4,3 km/h N 3,4 C 6,4 C 14,5 km/h
17.12.2014 11:00 6,6 C 80 % 1014,5 hPa 0,0 l/m 3,4 km/h N 3,4 C 6,6 C 9,7 km/h
17.12.2014 12:00 7,8 C 69 % 1013,7 hPa 0,0 l/m 3,8 km/h N 2,4 C 7,8 C 12,1 km/h
17.12.2014 13:00 7,8 C 67 % 1013,3 hPa 0,0 l/m 2,8 km/h N 2,1 C 7,8 C 8,9 km/h
17.12.2014 14:00 7,6 C 66 % 1012,6 hPa 0,0 l/m 1,4 km/h N 1,6 C 7,6 C 7,3 km/h
17.12.2014 15:00 7,0 C 68 % 1012,0 hPa 0,0 l/m 0,0 km/h N 1,5 C 7,0 C 0,0 km/h
17.12.2014 16:00 5,4 C 77 % 1012,0 hPa 0,0 l/m 0,7 km/h N 1,7 C 5,4 C 5,6 km/h
17.12.2014 17:00 5,2 C 81 % 1011,8 hPa 0,0 l/m 0,3 km/h N 2,2 C 5,2 C 3,6 km/h
17.12.2014 18:00 4,4 C 81 % 1011,5 hPa 0,0 l/m 0,0 km/h N 1,5 C 4,4 C 0,0 km/h
17.12.2014 19:00 3,5 C 83 % 1011,4 hPa 0,0 l/m 0,0 km/h N 0,8 C 3,5 C 0,0 km/h
17.12.2014 20:00 3,7 C 85 % 1011,6 hPa 0,0 l/m 0,2 km/h N 1,4 C 3,7 C 1,6 km/h
17.12.2014 21:00 4,2 C 86 % 1011,5 hPa 0,0 l/m 0,3 km/h N 2,0 C 4,2 C 3,6 km/h
17.12.2014 22:00 4,4 C 85 % 1011,6 hPa 0,0 l/m 0,4 km/h N 2,2 C 4,4 C 2,8 km/h
17.12.2014 23:00 4,3 C 85 % 1012,0 hPa 0,0 l/m 0,1 km/h N 2,1 C 4,3 C 2,4 km/h
18.12.2014 00:00 4,8 C 86 % 1012,3 hPa 0,0 l/m 0,9 km/h N 2,6 C 4,8 C 7,2 km/h
18.12.2014 01:00 6,7 C 85 % 1012,3 hPa 0,8 l/m 8,3 km/h N 4,3 C 4,7 C 27,0 km/h
18.12.2014 02:00 7,0 C 83 % 1012,8 hPa 0,3 l/m 9,7 km/h N 4,4 C 4,6 C 31,0 km/h
18.12.2014 03:00 7,1 C 83 % 1012,9 hPa 0,3 l/m 5,7 km/h N 4,4 C 7,1 C 18,5 km/h
18.12.2014 04:00 7,6 C 80 % 1013,5 hPa 0,0 l/m 6,0 km/h N 4,4 C 7,3 C 20,9 km/h
18.12.2014 05:00 7,6 C 80 % 1013,8 hPa 0,0 l/m 5,9 km/h N 4,3 C 7,0 C 18,9 km/h
18.12.2014 06:00 8,1 C 80 % 1014,5 hPa 0,0 l/m 8,3 km/h N 4,8 C 6,7 C 24,1 km/h
18.12.2014 07:00 8,3 C 80 % 1015,0 hPa 0,0 l/m 3,6 km/h N 5,0 C 8,3 C 15,3 km/h
18.12.2014 08:00 8,4 C 80 % 1015,8 hPa 0,0 l/m 2,7 km/h N 5,1 C 8,4 C 13,7 km/h
18.12.2014 09:00 9,2 C 78 % 1016,5 hPa 0,0 l/m 5,7 km/h N 5,6 C 9,2 C 18,5 km/h
18.12.2014 10:00 10,0 C 77 % 1016,7 hPa 0,0 l/m 6,4 km/h N 6,1 C 9,7 C 20,1 km/h
18.12.2014 11:00 10,7 C 75 % 1016,6 hPa 0,0 l/m 5,3 km/h N 6,4 C 10,7 C 20,1 km/h
18.12.2014 12:00 10,9 C 76 % 1016,4 hPa 0,0 l/m 6,2 km/h N 6,9 C 10,7 C 20,9 km/h
18.12.2014 13:00 11,0 C 77 % 1016,1 hPa 0,0 l/m 2,7 km/h N 7,1 C 11,0 C 12,4 km/h
18.12.2014 14:00 11,6 C 76 % 1016,0 hPa 0,0 l/m 1,2 km/h N 7,4 C 11,6 C 8,1 km/h
18.12.2014 15:00 11,6 C 76 % 1015,9 hPa 0,0 l/m 0,3 km/h N 7,4 C 11,6 C 4,8 km/h
18.12.2014 16:00 10,6 C 78 % 1016,1 hPa 0,0 l/m 0,4 km/h N 6,8 C 10,6 C 3,6 km/h
18.12.2014 17:00 9,0 C 80 % 1016,3 hPa 0,0 l/m 0,0 km/h N 5,8 C 9,0 C 0,0 km/h
18.12.2014 18:00 8,6 C 84 % 1016,4 hPa 0,0 l/m 0,2 km/h N 6,0 C 8,6 C 3,2 km/h
18.12.2014 19:00 8,8 C 85 % 1016,5 hPa 0,0 l/m 0,3 km/h N 6,3 C 8,8 C 3,2 km/h
18.12.2014 20:00 10,6 C 84 % 1016,4 hPa 0,0 l/m 3,3 km/h N 7,9 C 10,5 C 15,3 km/h
18.12.2014 21:00 12,5 C 79 % 1016,2 hPa 0,0 l/m 4,2 km/h N 9,0 C 12,5 C 20,5 km/h
18.12.2014 22:00 12,8 C 79 % 1016,0 hPa 0,0 l/m 5,2 km/h N 9,2 C 12,6 C 18,5 km/h
18.12.2014 23:00 12,7 C 80 % 1015,9 hPa 0,8 l/m 2,8 km/h N 9,4 C 12,7 C 15,3 km/h
19.12.2014 00:00 10,9 C 83 % 1015,8 hPa 0,8 l/m 0,4 km/h N 8,1 C 10,9 C 2,8 km/h
19.12.2014 01:00 11,3 C 85 % 1015,8 hPa 1,0 l/m 2,5 km/h N 8,7 C 11,3 C 14,5 km/h
19.12.2014 02:00 13,0 C 82 % 1015,5 hPa 0,0 l/m 8,3 km/h N 10,0 C 11,8 C 26,9 km/h
19.12.2014 03:00 13,8 C 78 % 1015,2 hPa 0,0 l/m 13,8 km/h N 10,1 C 10,2 C 33,4 km/h
19.12.2014 04:00 14,1 C 75 % 1014,9 hPa 0,0 l/m 20,0 km/h N 9,8 C 8,7 C 49,9 km/h
19.12.2014 05:00 14,6 C 69 % 1014,6 hPa 0,3 l/m 24,3 km/h N 8,9 C 8,2 C 52,7 km/h
19.12.2014 06:00 14,5 C 66 % 1014,5 hPa 0,0 l/m 23,9 km/h N 8,2 C 8,3 C 52,7 km/h
19.12.2014 07:00 14,1 C 66 % 1015,0 hPa 0,0 l/m 21,4 km/h N 7,8 C 8,6 C 46,3 km/h
19.12.2014 08:00 13,5 C 67 % 1016,3 hPa 0,0 l/m 10,3 km/h N 7,5 C 11,4 C 32,2 km/h
19.12.2014 09:00 13,4 C 66 % 1016,4 hPa 0,0 l/m 12,5 km/h N 7,1 C 10,2 C 36,6 km/h
19.12.2014 10:00 14,3 C 64 % 1016,4 hPa 0,0 l/m 9,8 km/h N 7,5 C 12,5 C 33,0 km/h
19.12.2014 11:00 14,9 C 63 % 1016,3 hPa 0,0 l/m 8,4 km/h N 8,0 C 13,9 C 24,9 km/h
19.12.2014 12:00 15,5 C 61 % 1015,7 hPa 0,0 l/m 5,5 km/h N 8,0 C 15,5 C 22,1 km/h
19.12.2014 13:00 16,7 C 57 % 1014,9 hPa 0,0 l/m 3,7 km/h N 8,0 C 16,6 C 17,7 km/h
19.12.2014 14:00 17,1 C 53 % 1014,3 hPa 0,0 l/m 3,6 km/h N 7,4 C 17,1 C 11,7 km/h
19.12.2014 15:00 15,7 C 58 % 1014,2 hPa 0,0 l/m 1,0 km/h N 7,4 C 15,7 C 6,0 km/h
19.12.2014 16:00 14,1 C 66 % 1013,9 hPa 0,0 l/m 0,4 km/h N 7,8 C 14,1 C 4,0 km/h
19.12.2014 17:00 14,8 C 55 % 1013,6 hPa 0,0 l/m 4,8 km/h N 5,6 C 14,6 C 20,5 km/h
19.12.2014 18:00 16,2 C 47 % 1013,6 hPa 0,0 l/m 6,8 km/h N 4,9 C 15,8 C 25,4 km/h
19.12.2014 19:00 15,9 C 49 % 1013,7 hPa 0,0 l/m 12,4 km/h N 5,1 C 13,3 C 32,2 km/h
19.12.2014 20:00 15,1 C 54 % 1014,2 hPa 0,0 l/m 13,7 km/h N 5,9 C 11,8 C 29,4 km/h
19.12.2014 21:00 14,8 C 56 % 1014,4 hPa 0,0 l/m 9,6 km/h N 6,2 C 13,2 C 29,8 km/h
19.12.2014 22:00 14,1 C 61 % 1014,9 hPa 0,0 l/m 10,1 km/h N 6,8 C 12,2 C 31,8 km/h
19.12.2014 23:00 13,5 C 64 % 1015,0 hPa 0,0 l/m 13,7 km/h N 6,8 C 9,9 C 37,0 km/h
20.12.2014 00:00 12,7 C 69 % 1015,0 hPa 0,3 l/m 15,3 km/h N 7,0 C 8,4 C 43,4 km/h
20.12.2014 01:00 11,3 C 74 % 1016,6 hPa 1,6 l/m 19,6 km/h N 6,8 C 5,2 C 48,3 km/h
20.12.2014 02:00 8,5 C 82 % 1017,9 hPa 2,6 l/m 10,9 km/h N 5,5 C 5,5 C 28,5 km/h
20.12.2014 03:00 8,8 C 81 % 1017,4 hPa 0,3 l/m 8,3 km/h N 5,8 C 7,5 C 25,7 km/h
20.12.2014 04:00 9,5 C 78 % 1017,5 hPa 0,0 l/m 16,0 km/h N 5,8 C 4,1 C 39,0 km/h
20.12.2014 05:00 9,7 C 78 % 1018,4 hPa 0,0 l/m 10,1 km/h N 6,1 C 7,3 C 26,9 km/h
20.12.2014 06:00 9,3 C 76 % 1019,9 hPa 0,0 l/m 8,7 km/h N 5,2 C 7,5 C 23,7 km/h
20.12.2014 07:00 8,8 C 61 % 1021,5 hPa 0,0 l/m 14,4 km/h N 1,7 C 3,9 C 31,8 km/h
20.12.2014 08:00 7,8 C 68 % 1022,3 hPa 0,0 l/m 7,9 km/h N 2,2 C 6,6 C 22,5 km/h
20.12.2014 09:00 7,8 C 66 % 1021,9 hPa 0,0 l/m 12,7 km/h N 1,9 C 3,8 C 31,8 km/h
20.12.2014 10:00 8,4 C 65 % 1021,8 hPa 0,0 l/m 14,1 km/h N 2,3 C 3,7 C 37,0 km/h
20.12.2014 11:00 9,4 C 62 % 1021,4 hPa 0,0 l/m 10,4 km/h N 2,5 C 6,8 C 27,4 km/h
20.12.2014 12:00 10,1 C 60 % 1020,8 hPa 0,0 l/m 9,6 km/h N 2,7 C 7,9 C 29,0 km/h
20.12.2014 13:00 9,9 C 62 % 1020,2 hPa 0,0 l/m 10,9 km/h N 2,9 C 7,0 C 31,4 km/h
20.12.2014 14:00 9,7 C 62 % 1019,6 hPa 0,0 l/m 10,7 km/h N 2,7 C 7,0 C 31,0 km/h
20.12.2014 15:00 9,6 C 63 % 1019,0 hPa 0,0 l/m 11,0 km/h N 2,9 C 6,7 C 33,8 km/h
20.12.2014 16:00 9,5 C 63 % 1018,7 hPa 0,0 l/m 9,9 km/h N 2,8 C 7,2 C 29,0 km/h
20.12.2014 17:00 9,0 C 64 % 1019,0 hPa 0,0 l/m 12,5 km/h N 2,5 C 5,2 C 34,6 km/h
20.12.2014 18:00 8,6 C 58 % 1019,0 hPa 0,0 l/m 8,2 km/h N 0,8 C 7,3 C 29,4 km/h
20.12.2014 19:00 8,1 C 56 % 1018,9 hPa 0,0 l/m 7,8 km/h N -0,2 C 7,0 C 24,5 km/h
20.12.2014 20:00 8,2 C 57 % 1018,7 hPa 0,0 l/m 14,5 km/h N 0,1 C 3,2 C 39,0 km/h
20.12.2014 21:00 7,9 C 61 % 1019,0 hPa 0,0 l/m 12,9 km/h N 0,8 C 3,6 C 39,4 km/h
20.12.2014 22:00 7,3 C 66 % 1019,2 hPa 0,0 l/m 13,4 km/h N 1,3 C 2,6 C 35,0 km/h
20.12.2014 23:00 7,0 C 67 % 1019,0 hPa 0,0 l/m 17,4 km/h N 1,2 C 0,5 C 43,1 km/h
21.12.2014 00:00 6,5 C 70 % 1019,2 hPa 0,0 l/m 18,8 km/h N 1,3 C -0,8 C 47,9 km/h
21.12.2014 01:00 6,0 C 74 % 1019,7 hPa 1,6 l/m 17,0 km/h N 1,7 C -0,6 C 47,1 km/h
21.12.2014 02:00 5,1 C 80 % 1020,7 hPa 0,5 l/m 8,9 km/h N 2,0 C 3,1 C 31,0 km/h
21.12.2014 03:00 5,4 C 75 % 1021,4 hPa 0,0 l/m 12,6 km/h N 1,4 C 1,0 C 32,6 km/h
21.12.2014 04:00 5,1 C 74 % 1022,4 hPa 0,0 l/m 13,6 km/h N 0,8 C 0,0 C 35,0 km/h
21.12.2014 05:00 4,9 C 75 % 1023,9 hPa 0,0 l/m 13,3 km/h N 0,8 C -0,1 C 32,2 km/h
21.12.2014 06:00 4,6 C 77 % 1024,6 hPa 0,0 l/m 13,0 km/h N 0,8 C -0,2 C 33,0 km/h
21.12.2014 07:00 4,4 C 78 % 1025,6 hPa 0,0 l/m 12,0 km/h N 1,0 C 0,1 C 31,4 km/h
21.12.2014 08:00 5,2 C 72 % 1026,2 hPa 0,0 l/m 14,8 km/h N 0,6 C -0,6 C 39,4 km/h
21.12.2014 09:00 6,1 C 67 % 1027,1 hPa 0,0 l/m 16,8 km/h N 0,3 C -0,4 C 43,0 km/h
21.12.2014 10:00 6,7 C 63 % 1027,9 hPa 0,0 l/m 16,4 km/h N 0,1 C 0,5 C 40,6 km/h
21.12.2014 11:00 7,0 C 62 % 1028,1 hPa 0,0 l/m 16,7 km/h N 0,2 C 0,8 C 37,8 km/h
21.12.2014 12:00 7,3 C 61 % 1028,3 hPa 0,0 l/m 18,6 km/h N 0,3 C 0,3 C 45,1 km/h
21.12.2014 13:00 7,3 C 63 % 1027,9 hPa 0,0 l/m 14,7 km/h N 0,6 C 2,0 C 33,4 km/h
21.12.2014 14:00 7,3 C 59 % 1028,0 hPa 0,0 l/m 12,5 km/h N -0,2 C 3,1 C 32,6 km/h
21.12.2014 15:00 6,7 C 62 % 1028,5 hPa 0,0 l/m 9,4 km/h N -0,1 C 4,4 C 26,5 km/h
21.12.2014 16:00 6,3 C 68 % 1028,7 hPa 0,0 l/m 7,4 km/h N 0,8 C 5,5 C 22,5 km/h
21.12.2014 17:00 6,3 C 69 % 1028,7 hPa 0,0 l/m 11,0 km/h N 0,9 C 2,9 C 30,5 km/h
21.12.2014 18:00 6,1 C 72 % 1029,0 hPa 0,0 l/m 10,0 km/h N 1,5 C 3,4 C 24,9 km/h
21.12.2014 19:00 6,2 C 69 % 1029,1 hPa 0,0 l/m 8,2 km/h N 1,0 C 4,8 C 24,5 km/h
21.12.2014 20:00 6,5 C 67 % 1028,6 hPa 0,0 l/m 8,2 km/h N 0,7 C 5,0 C 26,6 km/h
21.12.2014 21:00 6,6 C 64 % 1028,2 hPa 0,0 l/m 6,3 km/h N 0,4 C 6,4 C 26,5 km/h
21.12.2014 22:00 6,6 C 62 % 1028,0 hPa 0,0 l/m 4,4 km/h N -0,1 C 6,6 C 18,9 km/h
21.12.2014 23:00 6,7 C 62 % 1027,4 hPa 0,0 l/m 5,1 km/h N -0,2 C 6,7 C 18,5 km/h
Min-Datum _ 16.12.14 19.12.14 17.12.14 - 15.12.14 - 16.12.14 21.12.14 15.12.14
_ Min-Zeit 05:15 18:15 19:30 - 00:30 - 03:45 09:00 00:30
Minimum _ 0,1 C 47 % 1011,3 hPa - 0,0 km/h - -2,3 C -2,3 C 0,0 km/h
Max-Datum _ 19.12.14 17.12.14 21.12.14 20.12.14 19.12.14 - 19.12.14 19.12.14 19.12.14
_ Max-Zeit 14:15 04:00 19:30 02:15 07:15 - 03:30 14:15 04:30
Maximum _ 17,3 C 86 % 1029,4 hPa 2,6 l/m 29,9 km/h
N
- 10,1 C 17,3 C 62,8 km/h
N
Durchschnitt _ 6,9 C 75 % 1017,5 hPa #13,5 l/m 5,9 km/h N 2,6 C 5,6 C 17,3 km/h